Time;durP1;ratioP1;P1;durP2;ratioP2;P2;SDS_P1;SDS_P2;PMS_P1;PMS_P2;Temp;Humidity;BMP_temperature;BMP_pressure;BME280_temperature;BME280_humidity;BME280_pressure;Samples;Min_cycle;Max_cycle;Signal;HPM_P1;HPM_P2
2021/08/11 00:01:02;;;;;;;20.37;18.17;;;;;;;17.78;90.06;100659.16;1726103;80;27558;-78
2021/08/11 00:03:29;;;;;;;19.10;16.17;;;;;;;17.76;90.11;100662.62;1703454;81;26486;-78
2021/08/11 00:05:56;;;;;;;20.45;17.98;;;;;;;17.77;90.11;100664.27;1742104;81;26509;-78
2021/08/11 00:08:23;;;;;;;18.57;16.62;;;;;;;17.77;90.28;100663.46;1733296;81;25907;-77
2021/08/11 00:10:50;;;;;;;19.32;16.93;;;;;;;17.70;89.84;100672.52;1717201;82;25935;-77
2021/08/11 00:13:17;;;;;;;19.98;16.85;;;;;;;17.65;89.91;100672.89;1720982;82;28234;-78
2021/08/11 00:15:44;;;;;;;25.20;18.52;;;;;;;17.59;89.98;100677.37;1727234;81;25922;-77
2021/08/11 00:18:11;;;;;;;20.90;17.57;;;;;;;17.53;89.97;100672.88;1692354;82;25848;-77
2021/08/11 00:20:38;;;;;;;26.05;18.60;;;;;;;17.52;90.35;100678.50;1689622;82;26227;-78
2021/08/11 00:23:05;;;;;;;20.40;18.20;;;;;;;17.48;90.25;100674.57;1674629;82;26425;-77
2021/08/11 00:25:32;;;;;;;29.92;18.50;;;;;;;17.48;90.32;100675.41;1720117;82;27625;-78
2021/08/11 00:27:59;;;;;;;29.10;19.77;;;;;;;17.52;90.35;100677.14;1712927;82;26578;-78
2021/08/11 00:30:26;;;;;;;29.30;19.05;;;;;;;17.48;90.17;100675.41;1650535;81;25906;-78
2021/08/11 00:32:53;;;;;;;38.25;20.65;;;;;;;17.43;90.32;100673.91;1679107;82;26078;-77
2021/08/11 00:35:20;;;;;;;27.55;18.73;;;;;;;17.42;90.48;100668.72;1723624;82;25844;-78
2021/08/11 00:37:48;;;;;;;29.10;20.32;;;;;;;17.40;90.50;100674.90;1677736;82;28053;-77
2021/08/11 00:40:19;;;;;;;31.30;20.65;;;;;;;17.42;90.61;100672.27;1695152;82;25684;-78
2021/08/11 00:42:47;;;;;;;33.48;19.17;;;;;;;17.42;90.47;100666.84;1677522;82;26601;-78
2021/08/11 00:45:14;;;;;;;22.80;17.60;;;;;;;17.40;90.45;100668.97;1718518;82;26504;-78
2021/08/11 00:47:42;;;;;;;25.72;20.60;;;;;;;17.39;90.35;100668.66;1687971;82;25790;-77
2021/08/11 00:50:10;;;;;;;28.30;18.80;;;;;;;17.39;90.50;100668.66;1689614;82;27488;-78
2021/08/11 00:52:38;;;;;;;29.50;18.07;;;;;;;17.38;90.29;100671.08;1715759;82;26016;-78
2021/08/11 00:55:08;;;;;;;30.85;17.92;;;;;;;17.36;90.21;100671.84;1717237;82;25586;-78
2021/08/11 00:57:37;;;;;;;26.12;17.57;;;;;;;17.34;90.30;100675.27;1664929;82;25925;-78
2021/08/11 01:00:06;;;;;;;22.50;17.90;;;;;;;17.31;90.13;100668.14;1672234;82;25883;-78
2021/08/11 01:02:36;;;;;;;38.70;17.62;;;;;;;17.30;90.32;100674.08;1718766;82;27466;-78
2021/08/11 01:05:04;;;;;;;25.52;17.67;;;;;;;17.27;90.07;100671.02;1698722;82;26022;-77
2021/08/11 01:07:34;;;;;;;18.02;16.07;;;;;;;17.25;90.07;100671.25;1713477;82;25860;-78
2021/08/11 01:10:07;;;;;;;20.65;17.95;;;;;;;17.25;90.08;100667.19;1693902;81;25763;-77
2021/08/11 01:12:36;;;;;;;20.37;16.25;;;;;;;17.25;90.01;100666.35;1720817;81;26171;-78
2021/08/11 01:15:07;;;;;;;20.17;15.38;;;;;;;17.20;89.70;100662.14;1719187;82;27145;-78
2021/08/11 01:17:34;;;;;;;21.73;17.12;;;;;;;17.16;89.74;100656.89;1678081;83;25960;-77
2021/08/11 01:20:04;;;;;;;22.82;16.25;;;;;;;17.14;89.76;100651.71;1695864;83;26593;-78
2021/08/11 01:22:49;;;;;;;25.32;17.82;;;;;;;17.11;89.61;100655.41;1703460;83;25830;-78
2021/08/11 01:25:33;;;;;;;35.13;19.67;;;;;;;17.11;89.45;100665.69;1736845;81;25728;-78
2021/08/11 01:28:32;;;;;;;25.85;18.15;;;;;;;17.07;89.45;100669.91;1680776;81;28185;-77
2021/08/11 01:31:18;;;;;;;21.25;16.90;;;;;;;17.03;89.72;100678.18;1736252;81;25754;-77
2021/08/11 01:33:58;;;;;;;21.85;16.50;;;;;;;16.98;89.71;100672.09;1662669;83;25868;-78
2021/08/11 01:36:53;;;;;;;22.52;17.17;;;;;;;16.95;89.91;100667.67;1740692;81;25771;-77
2021/08/11 01:39:35;;;;;;;22.25;15.45;;;;;;;16.92;89.87;100660.83;1721495;81;26215;-78
2021/08/11 01:42:10;;;;;;;18.52;15.80;;;;;;;16.88;89.87;100656.92;1735210;81;27463;-78
2021/08/11 01:44:46;;;;;;;20.23;16.48;;;;;;;16.88;90.03;100660.15;1710896;82;26563;-77
2021/08/11 01:47:17;;;;;;;21.05;16.62;;;;;;;16.89;90.12;100667.23;1728851;82;25809;-78
2021/08/11 01:49:45;;;;;;;21.48;15.08;;;;;;;16.87;89.96;100659.87;1730694;82;25776;-78
2021/08/11 01:52:15;;;;;;;22.32;16.85;;;;;;;16.87;89.99;100656.61;1713334;81;26354;-78
2021/08/11 01:54:45;;;;;;;18.45;16.42;;;;;;;16.87;90.01;100666.63;1715763;81;28268;-78
2021/08/11 01:57:14;;;;;;;21.77;17.82;;;;;;;16.86;90.16;100666.31;1735671;81;25997;-77
2021/08/11 01:59:42;;;;;;;27.98;18.48;;;;;;;16.89;90.26;100664.52;1676399;83;25909;-78
2021/08/11 02:02:15;;;;;;;21.48;17.23;;;;;;;16.89;90.17;100666.68;1717905;81;26220;-78
2021/08/11 02:04:43;;;;;;;19.85;15.70;;;;;;;16.92;90.26;100668.95;1701622;81;25814;-77
2021/08/11 02:07:11;;;;;;;26.40;17.73;;;;;;;16.92;90.23;100670.81;1693980;81;28332;-78
2021/08/11 02:09:39;;;;;;;18.90;16.77;;;;;;;16.88;90.07;100670.45;1724627;82;25855;-78
2021/08/11 02:12:06;;;;;;;17.67;15.78;;;;;;;16.84;90.13;100667.06;1737783;81;26393;-78
2021/08/11 02:14:34;;;;;;;18.60;15.83;;;;;;;16.79;90.02;100675.86;1717552;81;25800;-77
2021/08/11 02:17:02;;;;;;;25.60;15.43;;;;;;;16.75;90.08;100675.17;1659822;81;25842;-78
2021/08/11 02:19:30;;;;;;;21.52;17.32;;;;;;;16.72;90.23;100675.64;1736211;80;27424;-78
2021/08/11 02:21:57;;;;;;;23.77;18.05;;;;;;;16.69;90.20;100674.73;1744722;80;25710;-77
2021/08/11 02:24:26;;;;;;;19.00;17.00;;;;;;;16.72;90.43;100681.05;1716967;81;26555;-78
2021/08/11 02:27:01;;;;;;;20.65;18.02;;;;;;;16.76;90.46;100674.97;1663828;81;25855;-78
2021/08/11 02:29:58;;;;;;;23.15;19.02;;;;;;;16.78;90.38;100675.58;1734543;80;25976;-77
2021/08/11 02:32:40;;;;;;;24.27;19.00;;;;;;;16.76;90.24;100679.55;1738741;81;27447;-78
2021/08/11 02:35:30;;;;;;;26.97;20.27;;;;;;;16.73;90.26;100685.39;1728101;81;25475;-78
2021/08/11 02:38:21;;;;;;;21.52;17.70;;;;;;;16.71;90.33;100690.20;1656267;80;25831;-77
2021/08/11 02:41:11;;;;;;;26.30;21.10;;;;;;;16.69;90.38;100689.09;1735227;81;26546;-77
2021/08/11 02:44:05;;;;;;;26.40;20.90;;;;;;;16.66;90.50;100682.76;1729489;80;26094;-78
2021/08/11 02:46:39;;;;;;;29.23;21.50;;;;;;;16.62;90.52;100688.31;1751038;80;28322;-78
2021/08/11 02:49:11;;;;;;;28.47;21.12;;;;;;;16.62;90.73;100698.30;1701650;81;25340;-78
2021/08/11 02:51:41;;;;;;;29.85;21.60;;;;;;;16.64;90.80;100697.03;1730885;81;25946;-78
2021/08/11 02:54:12;;;;;;;31.25;22.52;;;;;;;16.64;90.85;100699.73;1724415;81;25780;-78
2021/08/11 02:56:46;;;;;;;25.95;20.80;;;;;;;16.66;91.03;100683.28;1680488;83;26010;-78
2021/08/11 02:59:15;;;;;;;30.72;22.20;;;;;;;16.66;90.94;100688.69;1698484;81;27508;-78
2021/08/11 03:01:43;;;;;;;26.77;20.72;;;;;;;16.68;91.00;100678.50;1736469;81;25951;-78
2021/08/11 03:04:12;;;;;;;28.30;21.50;;;;;;;16.70;90.87;100675.05;1695279;81;25752;-78
2021/08/11 03:06:39;;;;;;;29.45;23.05;;;;;;;16.68;90.83;100689.32;1717508;81;25873;-78
2021/08/11 03:09:08;;;;;;;27.07;21.23;;;;;;;16.70;91.07;100692.08;1714020;81;25367;-78
2021/08/11 03:11:37;;;;;;;25.43;20.20;;;;;;;16.69;90.83;100693.14;1730476;81;27637;-78
2021/08/11 03:14:06;;;;;;;28.65;21.50;;;;;;;16.67;90.74;100691.19;1729175;82;25718;-77
2021/08/11 03:16:39;;;;;;;25.73;20.53;;;;;;;16.67;90.82;100685.78;1685989;82;25790;-79
2021/08/11 03:19:07;;;;;;;28.35;20.62;;;;;;;16.67;90.85;100688.48;1653187;81;25962;-79
2021/08/11 03:21:36;;;;;;;25.77;19.85;;;;;;;16.67;90.81;100688.48;1738626;81;26529;-78
2021/08/11 03:24:04;;;;;;;22.52;18.87;;;;;;;16.64;90.77;100698.39;1709950;81;28142;-77
2021/08/11 03:26:32;;;;;;;26.25;17.67;;;;;;;16.61;90.74;100705.61;1714900;81;25317;-77
2021/08/11 03:29:01;;;;;;;25.60;16.23;;;;;;;16.55;90.65;100708.38;1683536;81;26559;-77
2021/08/11 03:31:30;;;;;;;39.38;17.07;;;;;;;16.48;90.56;100702.16;1734253;81;26587;-78
2021/08/11 03:33:58;;;;;;;22.32;16.10;;;;;;;16.43;90.69;100698.77;1727070;81;26336;-78
2021/08/11 03:36:27;;;;;;;45.23;18.17;;;;;;;16.40;90.85;100703.81;1710789;81;28223;-78
2021/08/11 03:38:55;;;;;;;44.58;19.12;;;;;;;16.39;91.05;100707.03;1632337;81;26086;-77
2021/08/11 03:41:23;;;;;;;28.38;18.92;;;;;;;16.37;91.28;100699.67;1742595;80;26500;-78
2021/08/11 03:43:51;;;;;;;27.75;17.82;;;;;;;16.37;91.38;100694.78;1739705;81;26110;-77
2021/08/11 03:46:22;;;;;;;34.15;20.62;;;;;;;16.41;91.54;100690.58;1716631;81;26531;-78
2021/08/11 03:48:49;;;;;;;28.67;20.50;;;;;;;16.45;91.59;100696.67;1696212;82;28193;-78
2021/08/11 03:51:18;;;;;;;29.82;20.52;;;;;;;16.50;91.71;100701.45;1717336;82;25906;-77
2021/08/11 03:53:45;;;;;;;34.35;19.48;;;;;;;16.56;91.82;100696.50;1714354;82;25880;-78
2021/08/11 03:56:14;;;;;;;26.93;20.15;;;;;;;16.59;91.78;100691.48;1651326;82;26664;-78
2021/08/11 03:58:42;;;;;;;24.52;19.82;;;;;;;16.60;91.73;100684.17;1618618;83;25881;-78
2021/08/11 04:01:09;;;;;;;29.05;20.25;;;;;;;16.61;91.84;100677.22;1717499;83;28190;-78
2021/08/11 04:03:36;;;;;;;26.45;19.77;;;;;;;16.63;91.89;100679.17;1668465;83;25971;-78
2021/08/11 04:06:03;;;;;;;29.42;21.50;;;;;;;16.66;91.95;100680.05;1666639;84;26629;-76
2021/08/11 04:08:30;;;;;;;24.60;19.27;;;;;;;16.70;92.18;100675.84;1615417;83;26597;-78
2021/08/11 04:10:56;;;;;;;26.65;19.27;;;;;;;16.72;92.01;100679.70;1690822;83;26403;-78
2021/08/11 04:13:23;;;;;;;33.98;22.42;;;;;;;16.69;91.85;100690.95;1684919;83;28721;-78
2021/08/11 04:15:50;;;;;;;31.20;22.58;;;;;;;16.66;92.20;100696.80;1654800;84;26005;-78
2021/08/11 04:18:17;;;;;;;28.10;20.20;;;;;;;16.63;92.02;100692.69;1634454;83;25857;-78
2021/08/11 04:20:44;;;;;;;25.88;19.42;;;;;;;16.64;92.25;100694.33;1692158;83;25793;-77
2021/08/11 04:23:11;;;;;;;24.35;18.67;;;;;;;16.63;92.19;100696.75;1671544;83;25887;-77
2021/08/11 04:25:43;;;;;;;25.90;19.27;;;;;;;16.64;92.29;100707.02;1641943;83;27576;-78
2021/08/11 04:28:08;;;;;;;27.02;19.60;;;;;;;16.62;92.12;100700.48;1657320;83;25930;-78
2021/08/11 04:30:36;;;;;;;21.70;18.60;;;;;;;16.63;92.26;100694.56;1696204;83;25936;-78
2021/08/11 04:33:03;;;;;;;23.27;18.75;;;;;;;16.64;92.22;100694.84;1693932;83;26059;-77
2021/08/11 04:35:30;;;;;;;23.25;18.30;;;;;;;16.67;92.33;100705.23;1696983;83;26317;-77
2021/08/11 04:37:57;;;;;;;25.82;18.52;;;;;;;16.66;92.49;100705.75;1637823;83;27660;-77
2021/08/11 04:40:24;;;;;;;27.02;19.37;;;;;;;16.67;92.45;100707.42;1697350;83;25775;-79
2021/08/11 04:42:51;;;;;;;25.12;18.45;;;;;;;16.67;92.47;100708.77;1699794;83;26450;-78
2021/08/11 04:45:18;;;;;;;25.52;19.50;;;;;;;16.69;92.46;100714.78;1692469;83;26330;-77
2021/08/11 04:47:46;;;;;;;25.72;18.02;;;;;;;16.72;92.79;100718.92;1624641;82;25780;-78
2021/08/11 04:50:13;;;;;;;25.52;19.07;;;;;;;16.72;92.67;100723.78;1691945;83;27609;-78
2021/08/11 04:52:39;;;;;;;22.62;18.10;;;;;;;16.73;92.55;100720.05;1668949;83;25982;-77
2021/08/11 04:55:08;;;;;;;23.00;18.48;;;;;;;16.75;92.33;100708.47;1670423;83;25800;-78
2021/08/11 04:57:34;;;;;;;26.48;18.95;;;;;;;16.78;92.39;100706.69;1625146;83;25853;-78
2021/08/11 05:00:03;;;;;;;28.55;20.30;;;;;;;16.79;92.29;100712.38;1702668;83;25790;-78
2021/08/11 05:02:32;;;;;;;25.37;18.82;;;;;;;16.86;92.56;100710.95;1692781;81;27662;-78
2021/08/11 05:04:59;;;;;;;24.60;18.77;;;;;;;16.92;92.39;100718.17;1720969;81;26534;-78
2021/08/11 05:07:27;;;;;;;22.40;17.37;;;;;;;16.97;92.47;100708.86;1697779;81;26568;-78
2021/08/11 05:09:53;;;;;;;21.37;16.97;;;;;;;17.06;92.83;100718.34;1721314;81;26194;-78
2021/08/11 05:12:20;;;;;;;23.02;17.92;;;;;;;17.10;92.20;100718.70;1740882;81;26306;-77
2021/08/11 05:14:47;;;;;;;25.30;18.73;;;;;;;17.17;92.29;100714.84;1722326;81;28646;-77
2021/08/11 05:17:14;;;;;;;27.58;19.15;;;;;;;17.25;92.39;100713.73;1662535;81;25873;-77
2021/08/11 05:19:41;;;;;;;25.97;19.17;;;;;;;17.34;92.50;100716.44;1737497;80;25830;-77
2021/08/11 05:22:08;;;;;;;22.05;17.62;;;;;;;17.41;92.34;100714.45;1742937;81;26225;-78
2021/08/11 05:24:34;;;;;;;22.82;15.90;;;;;;;17.46;91.84;100717.31;1713605;81;26570;-77
2021/08/11 05:27:01;;;;;;;21.42;18.02;;;;;;;17.44;91.44;100715.36;1693203;81;27180;-78
2021/08/11 05:29:31;;;;;;;25.05;19.05;;;;;;;17.46;91.20;100721.37;1740455;81;25969;-77
2021/08/11 05:31:56;;;;;;;24.43;18.48;;;;;;;17.46;91.19;100714.59;1739538;81;25878;-78
2021/08/11 05:34:23;;;;;;;25.45;18.92;;;;;;;17.46;91.03;100723.55;1713411;81;25926;-78
2021/08/11 05:36:50;;;;;;;25.30;18.07;;;;;;;17.50;91.21;100721.23;1680113;81;25943;-78
2021/08/11 05:39:18;;;;;;;24.12;18.25;;;;;;;17.57;91.08;100722.82;1669757;81;28099;-77
2021/08/11 05:41:45;;;;;;;25.17;18.30;;;;;;;17.58;90.90;100721.75;1735744;81;25897;-76
2021/08/11 05:44:12;;;;;;;23.00;17.25;;;;;;;17.59;90.80;100715.29;1750960;81;25817;-76
2021/08/11 05:46:39;;;;;;;24.43;17.82;;;;;;;17.63;90.74;100720.55;1725939;81;25945;-76
2021/08/11 05:49:06;;;;;;;23.87;17.40;;;;;;;17.63;90.47;100724.61;1720228;81;25783;-78
2021/08/11 05:51:34;;;;;;;23.00;18.30;;;;;;;17.70;90.68;100725.88;1714223;81;27432;-77
2021/08/11 05:54:02;;;;;;;23.52;17.60;;;;;;;17.77;90.49;100727.94;1742657;81;25803;-77
2021/08/11 05:56:29;;;;;;;21.30;16.75;;;;;;;17.83;90.51;100727.04;1748959;81;25790;-77
2021/08/11 05:58:56;;;;;;;23.22;16.82;;;;;;;17.90;90.31;100728.30;1723317;81;25872;-78
2021/08/11 06:01:24;;;;;;;23.62;17.70;;;;;;;17.92;90.41;100724.83;1742031;81;25921;-78
2021/08/11 06:03:59;;;;;;;24.43;18.32;;;;;;;18.00;90.38;100732.62;1725188;81;27397;-77
2021/08/11 06:06:27;;;;;;;23.25;17.10;;;;;;;18.11;90.38;100733.19;1681390;81;25815;-78
2021/08/11 06:08:55;;;;;;;21.05;16.50;;;;;;;18.20;90.55;100733.12;1676507;81;25867;-78
2021/08/11 06:11:22;;;;;;;18.52;15.15;;;;;;;18.29;90.43;100737.15;1734503;81;25777;-77
2021/08/11 06:13:50;;;;;;;21.68;15.65;;;;;;;18.39;90.19;100738.77;1717246;81;26139;-78
2021/08/11 06:16:17;;;;;;;17.37;15.48;;;;;;;18.52;89.88;100739.91;1687709;81;28292;-77
2021/08/11 06:18:44;;;;;;;22.25;15.58;;;;;;;18.58;89.57;100748.50;1676727;81;25872;-77
2021/08/11 06:21:11;;;;;;;22.07;16.50;;;;;;;18.70;89.61;100749.83;1736003;81;25897;-78
2021/08/11 06:23:38;;;;;;;19.92;14.68;;;;;;;18.79;89.31;100753.85;1669836;83;25487;-77
2021/08/11 06:26:05;;;;;;;18.95;14.25;;;;;;;18.88;88.88;100752.44;1690593;81;25961;-80
2021/08/11 06:28:33;;;;;;;20.17;14.98;;;;;;;18.96;88.81;100746.64;1695168;81;28300;-80
2021/08/11 06:31:01;;;;;;;19.17;13.72;;;;;;;19.05;88.23;100754.72;1719703;81;25809;-81
2021/08/11 06:33:28;;;;;;;22.05;14.05;;;;;;;19.09;88.32;100755.90;1742482;81;25810;-79
2021/08/11 06:35:56;;;;;;;17.70;13.30;;;;;;;19.18;88.83;100749.04;1629775;83;25551;-82
2021/08/11 06:38:23;;;;;;;18.07;13.00;;;;;;;19.29;88.53;100756.31;1698323;81;25731;-80
2021/08/11 06:40:50;;;;;;;16.30;12.35;;;;;;;19.36;88.10;100760.29;1739403;81;28227;-79
2021/08/11 06:43:18;;;;;;;15.65;11.88;;;;;;;19.40;88.04;100759.57;1721249;81;25353;-80
2021/08/11 06:45:47;;;;;;;15.23;11.10;;;;;;;19.41;87.21;100749.53;1682827;83;25857;-81
2021/08/11 06:48:15;;;;;;;13.28;11.80;;;;;;;19.41;87.43;100759.88;1672269;83;26578;-79
2021/08/11 06:50:43;;;;;;;12.00;10.63;;;;;;;19.44;87.08;100756.66;1732410;81;25747;-81
2021/08/11 06:53:10;;;;;;;12.47;9.98;;;;;;;19.53;87.80;100762.02;1740534;81;27290;-82
2021/08/11 06:55:37;;;;;;;12.85;10.53;;;;;;;19.61;87.33;100758.91;1709673;81;25334;-81
2021/08/11 06:58:04;;;;;;;13.80;10.53;;;;;;;19.67;86.59;100769.36;1664166;80;25882;-79
2021/08/11 07:00:31;;;;;;;13.55;9.63;;;;;;;19.67;86.80;100769.36;1736894;81;25769;-79
2021/08/11 07:02:59;;;;;;;11.20;7.65;;;;;;;19.70;86.59;100768.86;1705897;81;25915;-76
2021/08/11 07:05:26;;;;;;;9.98;8.20;;;;;;;19.72;86.44;100764.84;1735114;81;28133;-79
2021/08/11 07:07:53;;;;;;;8.73;7.30;;;;;;;19.74;85.94;100764.59;1675102;81;26039;-82
2021/08/11 07:10:20;;;;;;;9.55;7.30;;;;;;;19.72;85.28;100770.80;1741361;81;25777;-78
2021/08/11 07:12:48;;;;;;;8.25;6.33;;;;;;;19.73;85.99;100769.75;1687296;81;25812;-79
2021/08/11 07:15:15;;;;;;;7.97;7.08;;;;;;;19.82;85.81;100768.30;1690128;81;25810;-80
2021/08/11 07:17:55;;;;;;;6.12;5.53;;;;;;;19.90;85.63;100764.66;1688834;81;27545;-80
2021/08/11 07:20:24;;;;;;;9.08;6.42;;;;;;;20.00;84.50;100764.84;1734331;81;25323;-79
2021/08/11 07:22:51;;;;;;;7.95;5.67;;;;;;;20.00;84.99;100772.99;1708852;81;25821;-81
2021/08/11 07:25:19;;;;;;;6.55;5.05;;;;;;;20.05;84.72;100769.55;1669080;81;25869;-79
2021/08/11 07:27:46;;;;;;;6.87;5.65;;;;;;;19.98;83.14;100775.13;1682277;81;25907;-79
2021/08/11 07:30:14;;;;;;;5.65;5.05;;;;;;;19.84;83.32;100764.80;1733962;81;28102;-80
2021/08/11 07:32:42;;;;;;;7.28;5.50;;;;;;;19.84;84.13;100760.73;1731965;81;25812;-78
2021/08/11 07:35:12;;;;;;;7.15;6.17;;;;;;;19.91;84.68;100769.53;1707733;81;26060;-80
2021/08/11 07:37:54;;;;;;;9.85;5.72;;;;;;;19.95;84.02;100768.01;1683150;81;26195;-78
2021/08/11 07:40:24;;;;;;;8.75;5.70;;;;;;;19.96;83.97;100762.31;1736970;81;25849;-83
2021/08/11 07:42:51;;;;;;;7.53;6.45;;;;;;;19.92;83.08;100757.08;1692081;81;27418;-78
2021/08/11 07:45:19;;;;;;;11.57;6.75;;;;;;;19.77;81.82;100755.44;1709195;81;25962;-81
2021/08/11 07:47:48;;;;;;;6.83;5.92;;;;;;;19.73;81.75;100752.08;1682321;81;25782;-82
2021/08/11 07:50:16;;;;;;;13.00;7.12;;;;;;;19.78;82.70;100762.50;1715504;81;26160;-81
2021/08/11 07:52:43;;;;;;;9.93;7.75;;;;;;;19.90;82.52;100757.86;1734262;80;26136;-80
2021/08/11 07:55:12;;;;;;;6.53;5.92;;;;;;;20.01;82.16;100754.80;1697615;81;28391;-79
2021/08/11 07:57:39;;;;;;;6.75;6.08;;;;;;;20.11;81.85;100750.05;1692526;83;25781;-79
2021/08/11 08:00:08;;;;;;;8.15;6.65;;;;;;;20.17;81.40;100753.14;1729379;81;25850;-79
2021/08/11 08:02:37;;;;;;;8.83;5.60;;;;;;;20.22;81.32;100753.27;1707675;81;25866;-76
2021/08/11 08:05:05;;;;;;;7.60;5.28;;;;;;;20.31;81.00;100751.28;1670665;81;25795;-76
2021/08/11 08:07:32;;;;;;;6.10;5.50;;;;;;;20.41;80.34;100743.27;1689919;82;27567;-76
2021/08/11 08:10:03;;;;;;;7.05;6.03;;;;;;;20.49;80.87;100741.48;1745030;81;26254;-76
2021/08/11 08:12:30;;;;;;;6.62;5.15;;;;;;;20.61;79.84;100740.88;1681304;82;26515;-76
2021/08/11 08:14:57;;;;;;;8.50;5.00;;;;;;;20.66;79.48;100735.50;1687521;81;26268;-76
2021/08/11 08:17:24;;;;;;;5.92;5.33;;;;;;;20.74;78.92;100732.34;1691272;82;25931;-76
2021/08/11 08:19:51;;;;;;;9.68;6.45;;;;;;;20.82;78.36;100733.83;1747504;81;27559;-76
2021/08/11 08:22:18;;;;;;;7.87;5.10;;;;;;;20.91;78.48;100736.42;1738356;81;26014;-80
2021/08/11 08:24:45;;;;;;;6.00;4.85;;;;;;;21.05;78.29;100740.98;1680564;84;25888;-80
2021/08/11 08:27:12;;;;;;;7.35;5.53;;;;;;;21.17;78.54;100736.26;1719406;81;25580;-81
2021/08/11 08:29:39;;;;;;;7.12;4.62;;;;;;;21.29;78.23;100740.50;1742038;80;25817;-81
2021/08/11 08:32:07;;;;;;;8.53;5.12;;;;;;;21.42;76.85;100737.40;1720061;81;26978;-78
2021/08/11 08:34:34;;;;;;;6.40;4.25;;;;;;;21.54;78.22;100738.61;1673362;81;26672;-79
2021/08/11 08:37:03;;;;;;;7.30;5.17;;;;;;;21.67;76.82;100740.11;1668315;82;25912;-79
2021/08/11 08:39:30;;;;;;;8.65;4.60;;;;;;;21.74;76.22;100740.74;1738772;81;25993;-81
2021/08/11 08:41:58;;;;;;;7.35;4.55;;;;;;;21.76;76.14;100741.31;1713177;81;25812;-79
2021/08/11 08:44:25;;;;;;;9.33;4.92;;;;;;;21.73;75.62;100743.17;1702638;81;27657;-78
2021/08/11 08:46:52;;;;;;;6.25;4.53;;;;;;;21.71;75.79;100749.42;1707082;81;25933;-79
2021/08/11 08:49:20;;;;;;;6.67;4.95;;;;;;;21.72;75.21;100743.73;1756173;80;25802;-79
2021/08/11 08:51:49;;;;;;;8.40;5.40;;;;;;;21.77;75.62;100748.42;1711873;81;25865;-80
2021/08/11 08:54:23;;;;;;;7.70;5.47;;;;;;;21.87;75.18;100749.92;1698831;81;26090;-79
2021/08/11 08:56:50;;;;;;;8.33;4.20;;;;;;;21.94;74.59;100739.07;1733863;81;28849;-80
2021/08/11 08:59:17;;;;;;;4.60;3.85;;;;;;;22.03;74.15;100744.34;1740941;81;25898;-76
2021/08/11 09:01:44;;;;;;;7.42;5.37;;;;;;;22.10;73.64;100743.61;1725697;81;25815;-76
2021/08/11 09:04:11;;;;;;;7.50;3.72;;;;;;;22.09;73.43;100741.14;1672968;82;26134;-79
2021/08/11 09:06:38;;;;;;;10.10;7.25;;;;;;;22.06;73.40;100742.48;1735398;81;25709;-79
2021/08/11 09:09:11;;;;;;;8.88;4.10;;;;;;;22.02;72.83;100742.72;1699093;83;28313;-79
2021/08/11 09:11:41;;;;;;;6.42;3.90;;;;;;;22.06;73.48;100745.74;1715191;83;25960;-80
2021/08/11 09:14:25;;;;;;;7.42;3.37;;;;;;;22.07;72.10;100738.66;1711776;83;25866;-81
2021/08/11 09:17:00;;;;;;;7.12;4.25;;;;;;;22.03;72.04;100740.79;1673104;83;26145;-79
2021/08/11 09:19:38;;;;;;;5.00;3.65;;;;;;;22.09;72.70;100732.96;1651355;83;26775;-78
2021/08/11 09:22:09;;;;;;;5.50;3.80;;;;;;;22.17;70.75;100741.50;1714846;83;27668;-78
2021/08/11 09:24:38;;;;;;;4.72;3.22;;;;;;;22.22;71.42;100736.06;1715087;82;26895;-77
2021/08/11 09:27:24;;;;;;;4.58;2.98;;;;;;;22.38;70.75;100738.92;1673917;83;25841;-79
2021/08/11 09:30:12;;;;;;;4.42;2.22;;;;;;;22.55;68.60;100749.16;1670786;83;26608;-79
2021/08/11 09:32:56;;;;;;;2.80;2.37;;;;;;;22.62;67.19;100753.36;1716207;83;25885;-78
2021/08/11 09:35:38;;;;;;;4.70;2.65;;;;;;;22.54;66.93;100753.79;1705893;83;28123;-78
2021/08/11 09:38:13;;;;;;;4.00;2.80;;;;;;;22.50;68.06;100752.67;1706972;83;26035;-78
2021/08/11 09:40:42;;;;;;;4.00;3.17;;;;;;;22.49;67.52;100753.77;1704868;83;25849;-78
2021/08/11 09:43:17;;;;;;;5.37;3.00;;;;;;;22.50;67.44;100760.03;1697991;83;25824;-78
2021/08/11 09:45:54;;;;;;;5.85;2.92;;;;;;;22.59;65.47;100753.05;1707689;83;25812;-78
2021/08/11 09:48:24;;;;;;;4.25;3.22;;;;;;;22.69;65.11;100763.49;1649820;83;27489;-78
2021/08/11 09:51:04;;;;;;;7.53;3.27;;;;;;;22.69;65.11;100761.33;1684469;82;25892;-78
2021/08/11 09:53:37;;;;;;;2.75;2.55;;;;;;;22.55;63.97;100759.55;1734678;81;25611;-78
2021/08/11 09:56:07;;;;;;;4.87;2.98;;;;;;;22.44;63.76;100755.08;1715153;82;25778;-78
2021/08/11 09:59:03;;;;;;;4.08;3.02;;;;;;;22.39;64.06;100758.33;1697653;82;25737;-78
2021/08/11 10:01:30;;;;;;;5.75;3.00;;;;;;;22.34;63.54;100759.64;1737331;82;27453;-78
2021/08/11 10:04:07;;;;;;;4.95;2.52;;;;;;;22.27;64.10;100754.39;1698478;82;25800;-77
2021/08/11 10:06:39;;;;;;;5.35;2.70;;;;;;;22.31;63.46;100758.25;1722247;82;26096;-78
2021/08/11 10:09:25;;;;;;;4.37;2.70;;;;;;;22.31;63.72;100763.70;1671811;82;25860;-78
2021/08/11 10:11:58;;;;;;;3.15;2.52;;;;;;;22.35;64.20;100766.76;1720953;82;25867;-78
2021/08/11 10:14:29;;;;;;;2.90;2.55;;;;;;;22.46;65.59;100774.75;1716558;82;28696;-78
2021/08/11 10:16:58;;;;;;;;;;;;;;;22.58;65.82;100775.95;1742561;81;25776;-78
2021/08/11 10:19:29;;;;;;;4.72;2.80;;;;;;;22.61;64.94;100772.71;1736791;81;25846;-78
2021/08/11 10:22:01;;;;;;;4.30;2.65;;;;;;;22.65;64.45;100771.94;1696855;81;25780;-78
2021/08/11 10:24:30;;;;;;;4.47;2.40;;;;;;;22.69;64.25;100775.78;1744437;81;25793;-78
2021/08/11 10:26:59;;;;;;;2.47;2.27;;;;;;;22.78;63.52;100781.58;1710824;81;27448;-78
2021/08/11 10:29:27;;;;;;;2.70;2.40;;;;;;;22.75;62.32;100785.66;1695352;81;25836;-77
2021/08/11 10:31:55;;;;;;;2.98;2.10;;;;;;;22.71;61.95;100791.93;1656205;81;25787;-78
2021/08/11 10:34:24;;;;;;;4.47;2.27;;;;;;;22.68;62.52;100787.80;1739753;81;26027;-78
2021/08/11 10:36:51;;;;;;;3.33;2.55;;;;;;;22.58;61.83;100783.58;1716153;81;25751;-78
2021/08/11 10:39:19;;;;;;;2.22;2.02;;;;;;;22.50;62.99;100784.60;1724546;81;27445;-78
2021/08/11 10:41:47;;;;;;;3.40;2.40;;;;;;;22.45;62.97;100801.79;1668067;81;25848;-78
2021/08/11 10:44:23;;;;;;;3.37;2.67;;;;;;;22.31;62.07;100793.73;1743779;81;25930;-77
2021/08/11 10:46:59;;;;;;;2.77;2.33;;;;;;;22.25;63.46;100794.77;1693857;81;26135;-78
2021/08/11 10:49:28;;;;;;;3.15;2.27;;;;;;;22.32;64.45;100795.39;1715186;81;25826;-78
2021/08/11 10:52:07;;;;;;;3.35;2.35;;;;;;;22.35;62.70;100794.05;1697531;81;28060;-78
2021/08/11 10:54:56;;;;;;;3.35;2.40;;;;;;;22.22;62.49;100796.09;1748814;80;26221;-78
2021/08/11 10:57:38;;;;;;;3.10;2.25;;;;;;;22.15;62.72;100799.56;1691315;81;26562;-77
2021/08/11 11:00:28;;;;;;;3.00;2.35;;;;;;;22.15;62.74;100791.95;1750577;79;26649;-77
2021/08/11 11:02:53;;;;;;;2.67;2.30;;;;;;;22.23;63.55;100799.66;1759856;80;25813;-78
2021/08/11 11:05:27;;;;;;;3.58;1.90;;;;;;;22.37;62.21;100802.80;1750567;80;28223;-78
2021/08/11 11:08:20;;;;;;;3.05;1.82;;;;;;;22.46;62.76;100803.42;1727355;80;25925;-78
2021/08/11 11:10:47;;;;;;;3.58;2.02;;;;;;;22.52;62.49;100801.00;1723928;82;25852;-79
2021/08/11 11:13:30;;;;;;;2.22;2.02;;;;;;;22.54;60.73;100807.59;1707450;83;26580;-79
2021/08/11 11:15:59;;;;;;;1.95;1.85;;;;;;;22.52;61.43;100796.91;1709455;82;25904;-81
2021/08/11 11:18:26;;;;;;;2.45;1.90;;;;;;;22.50;61.15;100803.17;1663292;83;28344;-78
2021/08/11 11:21:02;;;;;;;4.78;3.17;;;;;;;22.47;60.68;100805.61;1651958;83;25899;-81
2021/08/11 11:23:40;;;;;;;3.98;2.12;;;;;;;22.47;60.97;100798.79;1699591;82;26010;-78
2021/08/11 11:26:15;;;;;;;2.35;2.15;;;;;;;22.53;60.08;100801.30;1717715;82;25750;-76
2021/08/11 11:29:05;;;;;;;2.75;2.30;;;;;;;22.63;60.48;100800.05;1690925;83;26207;-76